Portada
METAR-TAF:

METAR-TAF

Aeroports :

Starkville, Mississipí, Estats Units d'Amèrica

latitud: 33-25-59N, longitud: 088-50-55W, altitud: 101 m

Observació

L'informe es va fer fa 36 minuts, a les 18:15 UTC
Vent 7 kt del Est/Sud-Est, variant entre Est/Nord-Est i Sud/Sud-Est
Temperatura 27°C
Humitat 58%
Pressió 1021 hPa
Visibilitat: 16.1 km
Núvols disperses a una alçada de 3300 ft

METAR: KSTF 211815Z AUTO 11007KT 062V152 10SM SCT033 27/18 A3016 RMK AO2

Hora: 13:51 (18:51 UTC)


TAF: manca

Observacions i pronòstics meteorològics de més de 4000 aeroports (METAR i TAF).

Les estacions disponibles són els punts grocs i vermells al mapa.

Posi el ratolí al punt desitjat per veure el nom de l'estació.

Feu clic per veure les observacions i els pronòstics meteorològics.

Per canviar el mapa: feu clic els botons verds amb una creu de color negre per apropar; al botó verd amb un guió per allunyar la imatge; o en les fletxes verdes per a mapes adjacents.


METAR-TAF: